createdAt,value
2019-03-26T00:01:20.643Z,99.90
2019-03-26T00:03:50.773Z,99.90
2019-03-26T00:06:20.933Z,99.90
2019-03-26T00:08:51.033Z,99.90
2019-03-26T00:11:21.202Z,99.90
2019-03-26T00:13:51.378Z,99.90
2019-03-26T00:16:21.514Z,99.90
2019-03-26T00:18:51.639Z,99.90
2019-03-26T00:21:21.845Z,99.90
2019-03-26T00:23:51.860Z,99.90
2019-03-26T00:26:22.011Z,99.90
2019-03-26T00:28:52.056Z,99.90
2019-03-26T00:31:22.093Z,99.90
2019-03-26T00:33:52.337Z,99.90
2019-03-26T00:36:22.705Z,99.90
2019-03-26T00:38:52.956Z,99.90
2019-03-26T00:41:23.118Z,99.90
2019-03-26T00:43:53.180Z,99.90
2019-03-26T00:46:23.256Z,99.90
2019-03-26T00:48:53.610Z,99.90
2019-03-26T00:51:23.841Z,99.90
2019-03-26T00:53:54.140Z,99.90
2019-03-26T00:56:24.225Z,99.90
2019-03-26T00:58:54.649Z,99.90
2019-03-26T01:01:24.760Z,99.90
2019-03-26T01:03:55.225Z,99.90
2019-03-26T01:06:25.421Z,99.90
2019-03-26T01:08:55.541Z,99.90
2019-03-26T01:11:25.761Z,99.90
2019-03-26T01:13:55.845Z,99.90
2019-03-26T01:16:25.964Z,99.90
2019-03-26T01:18:56.121Z,99.90
2019-03-26T01:21:26.324Z,99.90
2019-03-26T01:23:56.382Z,99.90
2019-03-26T01:26:26.617Z,99.90
2019-03-26T01:28:56.910Z,99.90
2019-03-26T01:31:26.997Z,99.90
2019-03-26T01:33:57.636Z,99.90
2019-03-26T01:36:27.818Z,99.90
2019-03-26T01:38:58.000Z,99.90
2019-03-26T01:41:28.021Z,99.90
2019-03-26T01:43:58.126Z,99.90
2019-03-26T01:46:28.309Z,99.90
2019-03-26T01:49:00.834Z,99.90
2019-03-26T01:51:30.904Z,99.90
2019-03-26T01:54:01.050Z,99.90
2019-03-26T01:56:31.238Z,99.90
2019-03-26T01:59:01.424Z,99.90
2019-03-26T02:01:31.530Z,99.90
2019-03-26T02:04:01.617Z,99.90
2019-03-26T02:06:31.746Z,99.90
2019-03-26T02:09:01.812Z,99.90
2019-03-26T02:11:31.996Z,99.90
2019-03-26T02:14:02.240Z,99.90
2019-03-26T02:16:32.707Z,99.90
2019-03-26T02:19:02.850Z,99.90
2019-03-26T02:21:32.975Z,99.90
2019-03-26T02:24:03.240Z,99.90
2019-03-26T02:26:33.374Z,99.90
2019-03-26T02:29:04.946Z,99.90
2019-03-26T02:31:35.103Z,99.90
2019-03-26T02:34:05.320Z,99.90
2019-03-26T02:36:35.486Z,99.90
2019-03-26T02:39:07.659Z,99.90
2019-03-26T02:41:38.255Z,99.90
2019-03-26T02:44:08.508Z,99.90
2019-03-26T02:46:38.658Z,99.90
2019-03-26T02:49:08.977Z,99.90
2019-03-26T02:51:39.141Z,99.90
2019-03-26T02:54:09.177Z,99.90
2019-03-26T02:56:39.264Z,99.90
2019-03-26T02:59:09.343Z,99.90
2019-03-26T03:01:39.420Z,99.90
2019-03-26T03:04:09.522Z,99.90
2019-03-26T03:06:39.752Z,99.90
2019-03-26T03:09:10.010Z,99.90
2019-03-26T03:11:40.181Z,99.90
2019-03-26T03:14:10.320Z,99.90
2019-03-26T03:16:40.373Z,99.90
2019-03-26T03:19:10.574Z,99.90
2019-03-26T03:21:40.702Z,99.90
2019-03-26T03:24:10.837Z,99.90
2019-03-26T03:26:40.967Z,99.90
2019-03-26T03:29:11.049Z,99.90
2019-03-26T03:31:41.130Z,99.90
2019-03-26T03:34:11.197Z,99.90
2019-03-26T03:36:41.439Z,99.90
2019-03-26T03:39:11.470Z,99.90
2019-03-26T03:41:41.574Z,99.90
2019-03-26T03:44:11.757Z,99.90
2019-03-26T03:46:43.412Z,99.90
2019-03-26T03:49:14.700Z,99.90
2019-03-26T03:51:46.937Z,99.90
2019-03-26T03:54:18.101Z,99.90
2019-03-26T03:56:51.191Z,99.90
2019-03-26T03:59:25.957Z,99.90
2019-03-26T04:01:56.300Z,99.90
2019-03-26T04:04:26.654Z,99.90
2019-03-26T04:06:56.806Z,99.90
2019-03-26T04:09:26.918Z,99.90
2019-03-26T04:11:57.330Z,99.90
2019-03-26T04:14:27.530Z,99.90
2019-03-26T04:16:57.605Z,99.90
2019-03-26T04:19:27.810Z,99.90
2019-03-26T04:21:57.974Z,99.90
2019-03-26T04:24:28.129Z,99.90
2019-03-26T04:26:58.230Z,99.90
2019-03-26T04:29:37.238Z,99.90
2019-03-26T04:32:07.128Z,99.90
2019-03-26T04:34:37.242Z,99.90
2019-03-26T04:37:07.159Z,99.90
2019-03-26T04:39:37.054Z,99.90
2019-03-26T04:42:07.013Z,99.90
2019-03-26T04:44:37.012Z,99.90
2019-03-26T04:47:06.897Z,99.90
2019-03-26T04:49:36.857Z,99.90
2019-03-26T04:52:06.749Z,99.90
2019-03-26T04:54:36.811Z,99.90
2019-03-26T04:57:06.708Z,99.90
2019-03-26T04:59:36.666Z,99.90
2019-03-26T05:02:06.604Z,99.90
2019-03-26T05:04:36.549Z,99.90
2019-03-26T05:07:06.458Z,99.90
2019-03-26T05:09:36.424Z,99.90
2019-03-26T05:12:06.379Z,99.90
2019-03-26T05:14:36.351Z,99.90
2019-03-26T05:17:06.336Z,99.90
2019-03-26T05:19:36.244Z,99.90
2019-03-26T05:26:17.994Z,99.90
2019-03-26T05:28:47.913Z,99.90
2019-03-26T05:31:17.884Z,99.90
2019-03-26T05:33:47.846Z,99.90
2019-03-26T05:36:18.142Z,99.90
2019-03-26T05:38:48.097Z,99.90
2019-03-26T05:41:18.067Z,99.90
2019-03-26T05:43:48.429Z,99.90
2019-03-26T05:46:18.352Z,99.90
2019-03-26T05:48:48.256Z,99.90
2019-03-26T05:51:18.307Z,99.90
2019-03-26T05:53:48.357Z,99.90
2019-03-26T05:56:18.443Z,99.90
2019-03-26T05:58:48.333Z,99.90
2019-03-26T06:01:18.289Z,99.90
2019-03-26T06:03:48.188Z,99.90
2019-03-26T06:06:18.274Z,99.90
2019-03-26T06:08:48.300Z,99.90
2019-03-26T06:11:18.358Z,99.90
2019-03-26T06:13:48.259Z,99.90
2019-03-26T06:16:18.196Z,99.90
2019-03-26T06:18:48.086Z,99.90
2019-03-26T06:21:18.004Z,99.90
2019-03-26T06:23:47.916Z,99.90
2019-03-26T06:26:18.652Z,99.90
2019-03-26T06:28:48.669Z,99.90
2019-03-26T06:31:18.605Z,99.90
2019-03-26T06:33:48.567Z,99.90
2019-03-26T06:36:18.552Z,99.90
2019-03-26T06:38:48.612Z,99.90
2019-03-26T06:41:18.539Z,99.90
2019-03-26T06:43:48.551Z,99.90
2019-03-26T06:46:18.480Z,99.90
2019-03-26T06:48:48.478Z,99.90
2019-03-26T06:51:18.568Z,99.90
2019-03-26T06:53:48.589Z,99.90
2019-03-26T06:56:18.552Z,99.90
2019-03-26T06:58:48.679Z,99.90
2019-03-26T07:01:18.818Z,99.90
2019-03-26T07:03:48.928Z,99.90
2019-03-26T07:06:18.876Z,99.90
2019-03-26T07:08:49.087Z,99.90
2019-03-26T07:11:19.001Z,99.90
2019-03-26T07:13:49.045Z,99.90
2019-03-26T07:16:18.980Z,99.90
2019-03-26T07:18:51.415Z,99.90
2019-03-26T07:21:21.312Z,99.90
2019-03-26T07:23:51.300Z,99.90
2019-03-26T07:26:21.283Z,99.90
2019-03-26T07:28:51.214Z,99.90
2019-03-26T07:31:21.133Z,99.90
2019-03-26T07:33:51.091Z,99.90
2019-03-26T07:36:21.202Z,99.90
2019-03-26T07:38:51.767Z,99.90
2019-03-26T07:41:21.680Z,99.90
2019-03-26T07:43:51.771Z,99.90
2019-03-26T07:46:21.744Z,99.90
2019-03-26T07:48:52.005Z,99.90
2019-03-26T07:51:22.060Z,99.90
2019-03-26T07:53:52.330Z,99.90
2019-03-26T07:56:22.429Z,99.90
2019-03-26T07:58:52.392Z,99.90
2019-03-26T08:01:22.397Z,99.90
2019-03-26T08:03:52.305Z,99.90
2019-03-26T08:06:22.292Z,99.90
2019-03-26T08:08:52.228Z,99.90
2019-03-26T08:11:22.275Z,99.90
2019-03-26T08:13:52.224Z,99.90
2019-03-26T08:16:22.201Z,99.90
2019-03-26T08:18:52.139Z,99.90
2019-03-26T08:21:22.151Z,99.90
2019-03-26T08:23:52.135Z,99.90
2019-03-26T08:26:22.103Z,99.90
2019-03-26T08:28:52.056Z,99.90
2019-03-26T08:31:22.015Z,99.90
2019-03-26T08:33:51.976Z,99.90
2019-03-26T08:36:22.367Z,99.90
2019-03-26T08:38:52.541Z,99.90
2019-03-26T08:41:22.693Z,99.90
2019-03-26T08:43:52.693Z,99.90
2019-03-26T08:46:22.683Z,99.90
2019-03-26T08:48:52.630Z,99.90
2019-03-26T08:51:22.587Z,99.90
2019-03-26T08:53:52.606Z,99.90
2019-03-26T08:56:22.551Z,99.90
2019-03-26T08:58:52.495Z,99.90
2019-03-26T09:01:22.714Z,99.90
2019-03-26T09:03:52.698Z,99.90
2019-03-26T09:06:22.757Z,99.90
2019-03-26T09:08:52.826Z,99.90
2019-03-26T09:11:22.712Z,99.90
2019-03-26T09:13:52.649Z,99.90
2019-03-26T09:16:22.611Z,99.90
2019-03-26T09:18:52.706Z,99.90
2019-03-26T09:21:22.619Z,99.90
2019-03-26T09:23:52.740Z,99.90
2019-03-26T09:26:22.795Z,99.90
2019-03-26T09:28:52.902Z,99.90
2019-03-26T09:31:22.932Z,99.90
2019-03-26T09:33:53.044Z,99.90
2019-03-26T09:36:23.239Z,99.90
2019-03-26T09:38:53.501Z,99.90
2019-03-26T09:41:23.579Z,99.90
2019-03-26T09:43:53.640Z,99.90
2019-03-26T09:46:23.604Z,99.90
2019-03-26T09:48:53.940Z,99.90
2019-03-26T09:51:23.938Z,99.90
2019-03-26T09:53:53.884Z,99.90
2019-03-26T09:56:29.392Z,99.90
2019-03-26T09:58:55.468Z,99.90
2019-03-26T10:01:25.400Z,99.90
2019-03-26T10:03:55.335Z,99.90
2019-03-26T10:06:25.276Z,99.90
2019-03-26T10:08:55.308Z,99.90
2019-03-26T10:11:25.747Z,99.90
2019-03-26T10:13:55.660Z,99.90
2019-03-26T10:16:25.697Z,99.90
2019-03-26T10:18:55.586Z,99.90
2019-03-26T10:21:25.643Z,99.90
2019-03-26T10:23:55.525Z,99.90
2019-03-26T10:26:25.500Z,99.90
2019-03-26T10:28:55.456Z,99.90
2019-03-26T10:31:25.376Z,99.90
2019-03-26T10:33:55.258Z,99.90
2019-03-26T10:36:25.816Z,99.90
2019-03-26T10:39:05.131Z,99.90
2019-03-26T10:41:27.687Z,99.90
2019-03-26T10:43:57.656Z,99.90
2019-03-26T10:46:27.688Z,99.90
2019-03-26T10:48:57.762Z,99.90
2019-03-26T10:51:27.711Z,99.90
2019-03-26T10:53:57.735Z,99.90
2019-03-26T10:56:27.642Z,99.90
2019-03-26T10:58:57.500Z,99.90
2019-03-26T11:01:27.542Z,99.90
2019-03-26T11:03:57.473Z,99.90
2019-03-26T11:06:27.375Z,99.90
2019-03-26T11:08:57.549Z,99.90
2019-03-26T11:11:27.591Z,99.90
2019-03-26T11:13:58.917Z,99.90
2019-03-26T11:16:28.959Z,99.90
2019-03-26T11:18:58.922Z,99.90
2019-03-26T11:21:28.962Z,99.90
2019-03-26T11:23:59.079Z,99.90
2019-03-26T11:26:29.036Z,99.90
2019-03-26T11:28:59.095Z,99.90
2019-03-26T11:31:30.249Z,99.90
2019-03-26T11:34:00.504Z,99.90
2019-03-26T11:36:30.509Z,99.90
2019-03-26T11:39:00.543Z,99.90
2019-03-26T11:41:30.596Z,99.90
2019-03-26T11:44:00.515Z,99.90
2019-03-26T11:46:30.488Z,99.90
2019-03-26T11:49:00.655Z,99.90
2019-03-26T11:51:30.600Z,99.90
2019-03-26T11:54:00.649Z,99.90
2019-03-26T11:56:30.574Z,99.90
2019-03-26T11:59:00.611Z,99.90
2019-03-26T12:01:31.009Z,99.90
2019-03-26T12:04:01.204Z,99.90
2019-03-26T12:06:31.132Z,99.90
2019-03-26T12:09:01.355Z,99.90
2019-03-26T12:11:31.444Z,99.90
2019-03-26T12:14:01.392Z,99.90
2019-03-26T12:16:31.469Z,99.90
2019-03-26T12:19:01.439Z,99.90
2019-03-26T12:21:31.396Z,99.90
2019-03-26T12:24:01.675Z,99.90
2019-03-26T12:26:31.665Z,99.90
2019-03-26T12:29:01.693Z,99.90
2019-03-26T12:31:31.704Z,99.90
2019-03-26T12:34:01.839Z,99.90
2019-03-26T12:36:39.984Z,99.90
2019-03-26T12:39:04.824Z,99.90
2019-03-26T12:41:34.804Z,99.90
2019-03-26T12:44:04.957Z,99.90
2019-03-26T12:46:35.096Z,99.90
2019-03-26T12:49:05.016Z,99.90
2019-03-26T12:51:34.949Z,99.90
2019-03-26T12:54:05.292Z,99.90
2019-03-26T12:56:35.274Z,99.90
2019-03-26T12:59:05.155Z,99.90
2019-03-26T13:01:35.417Z,99.90
2019-03-26T13:04:12.614Z,99.90
2019-03-26T13:06:37.303Z,99.90
2019-03-26T13:09:09.465Z,99.90
2019-03-26T13:11:39.383Z,99.90
2019-03-26T13:14:09.327Z,99.90
2019-03-26T13:16:39.380Z,99.50
2019-03-26T13:19:09.600Z,95.50
2019-03-26T13:21:39.542Z,96.10
2019-03-26T13:24:11.464Z,96.60
2019-03-26T13:26:41.255Z,97.60
2019-03-26T13:29:11.315Z,97.50
2019-03-26T13:31:41.396Z,95.20
2019-03-26T13:34:11.464Z,94.10
2019-03-26T13:36:41.599Z,93.70
2019-03-26T13:39:11.706Z,93.80
2019-03-26T13:41:41.619Z,94.90
2019-03-26T13:44:11.733Z,97.50
2019-03-26T13:46:41.747Z,96.80
2019-03-26T13:49:11.708Z,96.60
2019-03-26T13:51:41.713Z,95.70
2019-03-26T13:54:11.733Z,95.60
2019-03-26T13:56:41.956Z,95.70
2019-03-26T13:59:11.953Z,97.40
2019-03-26T14:01:44.262Z,98.30
2019-03-26T14:04:14.612Z,99.90
2019-03-26T14:06:44.596Z,99.90
2019-03-26T14:09:14.588Z,99.90
2019-03-26T14:11:44.572Z,99.90
2019-03-26T14:14:14.523Z,99.90
2019-03-26T14:16:44.447Z,99.90
2019-03-26T14:19:14.390Z,99.90
2019-03-26T14:21:44.382Z,99.90
2019-03-26T14:24:14.320Z,99.90
2019-03-26T14:26:44.314Z,99.90
2019-03-26T14:29:14.243Z,99.90
2019-03-26T14:31:44.271Z,99.90
2019-03-26T14:34:14.224Z,99.90
2019-03-26T14:36:44.165Z,99.90
2019-03-26T14:39:14.105Z,99.90
2019-03-26T14:41:44.037Z,99.90
2019-03-26T14:44:13.967Z,99.90
2019-03-26T14:46:43.994Z,99.90
2019-03-26T14:49:13.893Z,99.90
2019-03-26T14:51:43.884Z,99.90
2019-03-26T14:54:13.832Z,99.30
2019-03-26T14:56:43.905Z,97.20
2019-03-26T14:59:14.042Z,96.50
2019-03-26T15:01:44.074Z,95.90
2019-03-26T15:04:14.008Z,95.80
2019-03-26T15:06:43.948Z,97.40
2019-03-26T15:09:14.066Z,98.60
2019-03-26T15:11:44.044Z,99.90
2019-03-26T15:14:14.071Z,99.90
2019-03-26T15:16:44.022Z,99.90
2019-03-26T15:19:13.942Z,99.90
2019-03-26T15:21:44.034Z,99.90
2019-03-26T15:24:13.940Z,99.90
2019-03-26T15:26:43.912Z,99.90
2019-03-26T15:29:13.840Z,99.90
2019-03-26T15:31:43.869Z,99.90
2019-03-26T15:34:13.889Z,99.90
2019-03-26T15:36:43.991Z,99.90
2019-03-26T15:39:13.956Z,99.90
2019-03-26T15:41:43.887Z,99.90
2019-03-26T15:44:13.892Z,99.90
2019-03-26T15:46:43.828Z,99.90
2019-03-26T15:49:13.745Z,99.90
2019-03-26T15:51:43.769Z,99.90
2019-03-26T15:54:13.676Z,99.90
2019-03-26T15:56:43.627Z,99.90
2019-03-26T15:59:13.558Z,99.90
2019-03-26T16:01:43.617Z,99.90
2019-03-26T16:04:13.640Z,99.90
2019-03-26T16:06:43.604Z,99.90
2019-03-26T16:09:13.603Z,97.00
2019-03-26T16:11:43.556Z,96.80
2019-03-26T16:14:13.554Z,98.50
2019-03-26T16:16:43.441Z,99.90
2019-03-26T16:19:13.459Z,99.90
2019-03-26T16:21:43.469Z,99.90
2019-03-26T16:24:13.881Z,99.90
2019-03-26T16:26:43.814Z,99.90
2019-03-26T16:29:13.805Z,99.90
2019-03-26T16:32:01.441Z,99.90
2019-03-26T16:34:31.394Z,99.90
2019-03-26T16:37:01.356Z,99.90
2019-03-26T16:39:31.426Z,99.90
2019-03-26T16:42:01.389Z,99.90
2019-03-26T16:44:31.490Z,99.90
2019-03-26T16:47:01.561Z,99.90
2019-03-26T16:49:31.670Z,99.90
2019-03-26T16:52:01.758Z,99.90
2019-03-26T16:54:31.832Z,99.90
2019-03-26T17:00:31.336Z,99.90
2019-03-26T17:05:21.045Z,99.90
2019-03-26T17:07:11.310Z,99.90
2019-03-26T17:09:41.913Z,99.90
2019-03-26T17:12:12.068Z,99.90
2019-03-26T17:14:42.230Z,99.90
2019-03-26T17:17:12.382Z,99.90
2019-03-26T17:20:00.380Z,99.90
2019-03-26T17:22:30.622Z,99.90
2019-03-26T17:25:00.793Z,99.90
2019-03-26T17:27:31.290Z,99.90
2019-03-26T17:30:01.485Z,99.90
2019-03-26T17:32:31.672Z,99.90
2019-03-26T17:35:01.967Z,99.90
2019-03-26T17:37:32.190Z,99.90
2019-03-26T17:40:02.371Z,99.90
2019-03-26T17:42:32.564Z,99.90
2019-03-26T17:45:02.789Z,99.90
2019-03-26T17:47:32.995Z,99.90
2019-03-26T17:50:03.275Z,99.90
2019-03-26T17:52:33.490Z,99.90
2019-03-26T17:55:04.037Z,99.90
2019-03-26T17:57:34.653Z,99.90
2019-03-26T18:00:05.164Z,99.90
2019-03-26T18:03:28.181Z,99.90
2019-03-26T18:05:58.362Z,99.90
2019-03-26T18:08:28.425Z,99.90
2019-03-26T18:10:58.738Z,99.90
2019-03-26T18:13:28.943Z,99.90
2019-03-26T18:15:59.127Z,99.90
2019-03-26T18:18:29.377Z,99.90
2019-03-26T18:21:01.466Z,99.90
2019-03-26T18:23:31.628Z,99.90
2019-03-26T18:26:01.790Z,99.90
2019-03-26T18:28:32.043Z,99.90
2019-03-26T18:31:02.212Z,99.90
2019-03-26T18:33:34.729Z,99.90
2019-03-26T18:36:04.974Z,99.90
2019-03-26T18:38:35.359Z,99.90
2019-03-26T18:41:05.678Z,99.90
2019-03-26T18:43:36.237Z,99.90
2019-03-26T18:46:06.453Z,99.90
2019-03-26T18:48:36.630Z,99.90
2019-03-26T18:51:06.723Z,99.90
2019-03-26T18:53:39.002Z,99.90
2019-03-26T18:56:09.316Z,99.90
2019-03-26T18:58:39.462Z,99.90
2019-03-26T19:01:09.687Z,99.90
2019-03-26T19:03:40.219Z,99.90
2019-03-26T19:06:10.479Z,99.90
2019-03-26T19:08:40.664Z,99.90
2019-03-26T19:11:10.873Z,99.90
2019-03-26T19:13:41.143Z,99.90
2019-03-26T19:16:11.286Z,99.90
2019-03-26T19:18:41.493Z,99.90
2019-03-26T19:21:11.741Z,99.90
2019-03-26T19:23:42.328Z,99.90
2019-03-26T19:26:12.439Z,99.90
2019-03-26T19:28:42.642Z,99.90
2019-03-26T19:31:12.915Z,99.90
2019-03-26T19:33:43.103Z,99.90
2019-03-26T19:36:13.750Z,99.90
2019-03-26T19:39:41.853Z,99.90
2019-03-26T19:42:12.135Z,99.90
2019-03-26T19:44:42.406Z,99.90
2019-03-26T19:47:12.594Z,99.90
2019-03-26T19:49:42.790Z,99.90
2019-03-26T19:52:13.169Z,99.90
2019-03-26T19:54:43.359Z,99.90
2019-03-26T19:57:13.849Z,99.90
2019-03-26T19:59:44.150Z,99.90
2019-03-26T20:02:14.438Z,99.90
2019-03-26T20:04:44.653Z,99.90
2019-03-26T20:07:14.878Z,99.90
2019-03-26T20:09:45.057Z,99.90
2019-03-26T20:12:15.693Z,99.90
2019-03-26T20:14:46.035Z,99.90
2019-03-26T20:17:16.196Z,99.90
2019-03-26T20:19:46.334Z,99.90
2019-03-26T20:22:16.572Z,99.90
2019-03-26T20:24:47.131Z,99.90
2019-03-26T20:27:17.370Z,99.90
2019-03-26T20:29:47.887Z,99.90
2019-03-26T20:32:18.537Z,99.90
2019-03-26T20:34:48.667Z,99.90
2019-03-26T20:37:18.895Z,99.90
2019-03-26T20:39:49.127Z,99.90
2019-03-26T20:42:19.301Z,99.90
2019-03-26T20:44:49.546Z,99.90
2019-03-26T20:47:19.805Z,99.90
2019-03-26T20:49:50.081Z,99.90
2019-03-26T20:52:20.334Z,99.90
2019-03-26T20:54:50.810Z,99.90
2019-03-26T20:57:21.031Z,99.90
2019-03-26T20:59:51.209Z,99.90
2019-03-26T21:02:38.868Z,99.90
2019-03-26T21:05:09.836Z,99.90
2019-03-26T21:07:40.222Z,99.90
2019-03-26T21:10:10.990Z,99.90
2019-03-26T21:12:41.132Z,99.90
2019-03-26T21:15:12.336Z,99.90
2019-03-26T21:17:42.698Z,99.90
2019-03-26T21:20:13.110Z,99.90
2019-03-26T21:22:43.525Z,99.90
2019-03-26T21:25:14.118Z,99.90
2019-03-26T21:27:44.418Z,99.90
2019-03-26T21:30:16.151Z,99.90
2019-03-26T21:32:46.576Z,99.90
2019-03-26T21:35:17.122Z,99.90
2019-03-26T21:37:50.224Z,99.90
2019-03-26T21:40:20.565Z,99.90
2019-03-26T21:42:50.823Z,99.90
2019-03-26T21:45:33.822Z,99.90
2019-03-26T21:48:04.639Z,99.90
2019-03-26T21:50:34.797Z,99.90
2019-03-26T21:53:04.958Z,99.90
2019-03-26T21:55:35.219Z,99.90
2019-03-26T21:58:24.928Z,99.90
2019-03-26T22:00:55.100Z,99.90
2019-03-26T22:03:25.218Z,99.90
2019-03-26T22:05:55.409Z,99.90
2019-03-26T22:08:25.550Z,99.90
2019-03-26T22:10:55.648Z,99.90
2019-03-26T22:13:25.862Z,99.90
2019-03-26T22:15:56.046Z,99.90
2019-03-26T22:18:26.214Z,99.90
2019-03-26T22:20:56.634Z,99.90
2019-03-26T22:23:26.798Z,99.90
2019-03-26T22:25:56.981Z,99.90
2019-03-26T22:28:27.217Z,99.90
2019-03-26T22:30:57.300Z,99.90
2019-03-26T22:33:28.068Z,99.90
2019-03-26T22:35:58.254Z,99.90
2019-03-26T22:38:28.359Z,99.90
2019-03-26T22:40:58.530Z,99.90
2019-03-26T22:43:28.696Z,99.90
2019-03-26T22:45:58.877Z,99.90
2019-03-26T22:48:29.042Z,99.90
2019-03-26T22:50:59.243Z,99.90
2019-03-26T22:53:29.515Z,99.90
2019-03-26T22:55:59.672Z,99.90
2019-03-26T22:58:29.876Z,99.90
2019-03-26T23:01:00.005Z,99.90
2019-03-26T23:03:30.108Z,99.90
2019-03-26T23:06:00.315Z,99.90
2019-03-26T23:08:30.442Z,99.90
2019-03-26T23:11:00.689Z,99.90
2019-03-26T23:13:30.763Z,99.90
2019-03-26T23:16:00.901Z,99.90
2019-03-26T23:18:31.026Z,99.90
2019-03-26T23:21:01.199Z,99.90
2019-03-26T23:23:31.457Z,99.90
2019-03-26T23:26:01.604Z,99.90
2019-03-26T23:28:31.711Z,99.90
2019-03-26T23:31:01.856Z,99.90
2019-03-26T23:33:32.029Z,99.90
2019-03-26T23:36:02.259Z,99.90
2019-03-26T23:38:32.393Z,99.90
2019-03-26T23:41:39.716Z,99.90
2019-03-26T23:44:09.657Z,99.90
2019-03-26T23:46:39.829Z,99.90
2019-03-26T23:49:09.977Z,99.90
2019-03-26T23:51:40.140Z,99.90
2019-03-26T23:54:10.315Z,99.90
2019-03-26T23:56:40.463Z,99.90
2019-03-26T23:59:10.547Z,99.90
